sensor_id;sensor_type;location;lat;lon;timestamp;P1;durP1;ratioP1;P2;durP2;ratioP2
34920;SDS011;21128;50.016;20.002;2022-11-20T00:01:25;103.27;;;52.20;;
34920;SDS011;21128;50.016;20.002;2022-11-20T00:04:11;107.23;;;52.57;;
34920;SDS011;21128;50.016;20.002;2022-11-20T00:06:57;102.13;;;50.67;;
34920;SDS011;21128;50.016;20.002;2022-11-20T00:09:43;111.67;;;55.83;;
34920;SDS011;21128;50.016;20.002;2022-11-20T00:12:28;98.27;;;52.30;;
34920;SDS011;21128;50.016;20.002;2022-11-20T00:15:14;102.40;;;57.73;;
34920;SDS011;21128;50.016;20.002;2022-11-20T00:18:00;100.50;;;51.77;;
34920;SDS011;21128;50.016;20.002;2022-11-20T00:20:46;95.93;;;50.60;;
34920;SDS011;21128;50.016;20.002;2022-11-20T00:23:37;101.85;;;53.00;;
34920;SDS011;21128;50.016;20.002;2022-11-20T00:26:24;103.20;;;52.40;;
34920;SDS011;21128;50.016;20.002;2022-11-20T00:29:11;105.23;;;54.97;;
34920;SDS011;21128;50.016;20.002;2022-11-20T00:32:03;100.33;;;52.40;;
34920;SDS011;21128;50.016;20.002;2022-11-20T00:34:56;103.37;;;52.80;;
34920;SDS011;21128;50.016;20.002;2022-11-20T00:37:41;96.03;;;51.53;;
34920;SDS011;21128;50.016;20.002;2022-11-20T00:40:27;96.97;;;52.60;;
34920;SDS011;21128;50.016;20.002;2022-11-20T00:43:12;101.33;;;51.10;;
34920;SDS011;21128;50.016;20.002;2022-11-20T00:48:51;101.65;;;54.65;;
34920;SDS011;21128;50.016;20.002;2022-11-20T00:51:37;101.60;;;54.87;;
34920;SDS011;21128;50.016;20.002;2022-11-20T00:54:22;101.13;;;54.23;;
34920;SDS011;21128;50.016;20.002;2022-11-20T00:57:08;98.13;;;52.37;;
34920;SDS011;21128;50.016;20.002;2022-11-20T00:59:53;100.30;;;51.03;;
34920;SDS011;21128;50.016;20.002;2022-11-20T01:02:45;102.35;;;52.65;;
34920;SDS011;21128;50.016;20.002;2022-11-20T01:05:33;92.97;;;53.57;;
34920;SDS011;21128;50.016;20.002;2022-11-20T01:08:20;98.87;;;52.43;;
34920;SDS011;21128;50.016;20.002;2022-11-20T01:11:13;97.30;;;50.87;;
34920;SDS011;21128;50.016;20.002;2022-11-20T01:14:01;100.40;;;50.20;;
34920;SDS011;21128;50.016;20.002;2022-11-20T01:16:49;106.13;;;51.80;;
34920;SDS011;21128;50.016;20.002;2022-11-20T01:19:36;101.60;;;51.17;;
34920;SDS011;21128;50.016;20.002;2022-11-20T01:22:28;102.43;;;51.33;;
34920;SDS011;21128;50.016;20.002;2022-11-20T01:25:14;80.30;;;40.30;;
34920;SDS011;21128;50.016;20.002;2022-11-20T01:28:00;97.33;;;52.47;;
34920;SDS011;21128;50.016;20.002;2022-11-20T01:30:45;102.30;;;51.70;;
34920;SDS011;21128;50.016;20.002;2022-11-20T01:33:50;102.73;;;51.37;;
34920;SDS011;21128;50.016;20.002;2022-11-20T01:36:46;97.20;;;51.40;;
34920;SDS011;21128;50.016;20.002;2022-11-20T01:39:32;105.90;;;52.20;;
34920;SDS011;21128;50.016;20.002;2022-11-20T01:42:18;98.13;;;49.60;;
34920;SDS011;21128;50.016;20.002;2022-11-20T01:51:58;96.67;;;48.93;;
34920;SDS011;21128;50.016;20.002;2022-11-20T01:57:57;96.03;;;48.50;;
34920;SDS011;21128;50.016;20.002;2022-11-20T02:00:43;97.63;;;49.73;;
34920;SDS011;21128;50.016;20.002;2022-11-20T02:03:29;94.30;;;47.03;;
34920;SDS011;21128;50.016;20.002;2022-11-20T02:06:22;89.15;;;48.45;;
34920;SDS011;21128;50.016;20.002;2022-11-20T02:09:10;86.70;;;47.13;;
34920;SDS011;21128;50.016;20.002;2022-11-20T02:11:56;88.70;;;47.90;;
34920;SDS011;21128;50.016;20.002;2022-11-20T02:14:44;90.70;;;47.43;;
34920;SDS011;21128;50.016;20.002;2022-11-20T02:17:29;96.93;;;49.57;;
34920;SDS011;21128;50.016;20.002;2022-11-20T02:20:16;93.27;;;50.77;;
34920;SDS011;21128;50.016;20.002;2022-11-20T02:23:11;93.67;;;48.30;;
34920;SDS011;21128;50.016;20.002;2022-11-20T02:26:02;91.53;;;47.93;;
34920;SDS011;21128;50.016;20.002;2022-11-20T02:28:51;105.70;;;51.27;;
34920;SDS011;21128;50.016;20.002;2022-11-20T02:31:38;93.57;;;48.27;;
34920;SDS011;21128;50.016;20.002;2022-11-20T02:34:45;93.33;;;47.07;;
34920;SDS011;21128;50.016;20.002;2022-11-20T02:37:32;99.63;;;48.93;;
34920;SDS011;21128;50.016;20.002;2022-11-20T02:40:21;88.97;;;45.60;;
34920;SDS011;21128;50.016;20.002;2022-11-20T02:43:07;94.10;;;46.80;;
34920;SDS011;21128;50.016;20.002;2022-11-20T02:45:53;90.93;;;48.10;;
34920;SDS011;21128;50.016;20.002;2022-11-20T02:48:39;97.23;;;51.53;;
34920;SDS011;21128;50.016;20.002;2022-11-20T02:51:31;100.33;;;51.73;;
34920;SDS011;21128;50.016;20.002;2022-11-20T02:54:17;97.67;;;47.50;;
34920;SDS011;21128;50.016;20.002;2022-11-20T02:57:02;91.63;;;47.27;;
34920;SDS011;21128;50.016;20.002;2022-11-20T02:59:48;90.63;;;47.60;;
34920;SDS011;21128;50.016;20.002;2022-11-20T03:02:34;95.23;;;47.80;;
34920;SDS011;21128;50.016;20.002;2022-11-20T03:05:20;98.43;;;48.73;;
34920;SDS011;21128;50.016;20.002;2022-11-20T03:08:12;99.35;;;50.30;;
34920;SDS011;21128;50.016;20.002;2022-11-20T03:11:01;99.65;;;51.40;;
34920;SDS011;21128;50.016;20.002;2022-11-20T03:13:49;92.07;;;49.47;;
34920;SDS011;21128;50.016;20.002;2022-11-20T03:16:34;91.67;;;45.97;;
34920;SDS011;21128;50.016;20.002;2022-11-20T03:19:20;88.13;;;48.17;;
34920;SDS011;21128;50.016;20.002;2022-11-20T03:22:06;98.23;;;46.37;;
34920;SDS011;21128;50.016;20.002;2022-11-20T03:24:58;91.27;;;47.03;;
34920;SDS011;21128;50.016;20.002;2022-11-20T03:27:44;96.90;;;46.33;;
34920;SDS011;21128;50.016;20.002;2022-11-20T03:30:30;92.30;;;48.93;;
34920;SDS011;21128;50.016;20.002;2022-11-20T03:33:28;87.03;;;46.77;;
34920;SDS011;21128;50.016;20.002;2022-11-20T03:36:21;96.27;;;46.97;;
34920;SDS011;21128;50.016;20.002;2022-11-20T03:39:07;94.97;;;46.13;;
34920;SDS011;21128;50.016;20.002;2022-11-20T03:41:53;97.80;;;48.43;;
34920;SDS011;21128;50.016;20.002;2022-11-20T03:44:38;100.00;;;48.67;;
34920;SDS011;21128;50.016;20.002;2022-11-20T03:47:24;104.67;;;50.93;;
34920;SDS011;21128;50.016;20.002;2022-11-20T03:50:10;104.70;;;52.90;;
34920;SDS011;21128;50.016;20.002;2022-11-20T03:52:58;108.70;;;51.87;;
34920;SDS011;21128;50.016;20.002;2022-11-20T03:55:43;109.27;;;52.07;;
34920;SDS011;21128;50.016;20.002;2022-11-20T03:58:35;104.40;;;48.57;;
34920;SDS011;21128;50.016;20.002;2022-11-20T04:01:24;118.87;;;51.77;;
34920;SDS011;21128;50.016;20.002;2022-11-20T04:04:12;107.37;;;50.70;;
34920;SDS011;21128;50.016;20.002;2022-11-20T04:06:57;103.60;;;51.05;;
34920;SDS011;21128;50.016;20.002;2022-11-20T04:09:43;102.20;;;48.60;;
34920;SDS011;21128;50.016;20.002;2022-11-20T04:12:31;98.45;;;49.80;;
34920;SDS011;21128;50.016;20.002;2022-11-20T04:15:18;105.07;;;49.27;;
34920;SDS011;21128;50.016;20.002;2022-11-20T04:18:04;103.27;;;48.77;;
34920;SDS011;21128;50.016;20.002;2022-11-20T04:20:50;103.53;;;48.13;;
34920;SDS011;21128;50.016;20.002;2022-11-20T04:23:42;101.37;;;47.27;;
34920;SDS011;21128;50.016;20.002;2022-11-20T04:26:34;92.40;;;46.70;;
34920;SDS011;21128;50.016;20.002;2022-11-20T04:29:20;94.65;;;46.45;;
34920;SDS011;21128;50.016;20.002;2022-11-20T04:32:05;92.97;;;47.07;;
34920;SDS011;21128;50.016;20.002;2022-11-20T04:35:05;95.23;;;46.27;;
34920;SDS011;21128;50.016;20.002;2022-11-20T04:37:51;95.15;;;46.58;;
34920;SDS011;21128;50.016;20.002;2022-11-20T04:40:44;102.20;;;47.80;;
34920;SDS011;21128;50.016;20.002;2022-11-20T04:43:29;107.47;;;49.18;;
34920;SDS011;21128;50.016;20.002;2022-11-20T04:46:15;98.77;;;48.43;;
34920;SDS011;21128;50.016;20.002;2022-11-20T04:49:02;100.35;;;47.95;;
34920;SDS011;21128;50.016;20.002;2022-11-20T04:51:48;91.90;;;48.40;;
34920;SDS011;21128;50.016;20.002;2022-11-20T04:54:33;101.80;;;49.20;;
34920;SDS011;21128;50.016;20.002;2022-11-20T04:57:19;105.93;;;49.53;;
34920;SDS011;21128;50.016;20.002;2022-11-20T05:00:05;101.97;;;49.03;;
34920;SDS011;21128;50.016;20.002;2022-11-20T05:02:51;103.85;;;48.15;;
34920;SDS011;21128;50.016;20.002;2022-11-20T05:05:36;95.97;;;47.50;;
34920;SDS011;21128;50.016;20.002;2022-11-20T05:08:28;102.07;;;50.17;;
34920;SDS011;21128;50.016;20.002;2022-11-20T05:11:15;105.27;;;50.73;;
34920;SDS011;21128;50.016;20.002;2022-11-20T05:14:03;112.03;;;52.63;;
34920;SDS011;21128;50.016;20.002;2022-11-20T05:16:49;109.47;;;49.87;;
34920;SDS011;21128;50.016;20.002;2022-11-20T05:19:34;109.80;;;52.95;;
34920;SDS011;21128;50.016;20.002;2022-11-20T05:22:20;105.67;;;51.40;;
34920;SDS011;21128;50.016;20.002;2022-11-20T05:25:19;116.53;;;55.30;;
34920;SDS011;21128;50.016;20.002;2022-11-20T05:28:04;130.67;;;55.83;;
34920;SDS011;21128;50.016;20.002;2022-11-20T05:30:50;128.90;;;56.30;;
34920;SDS011;21128;50.016;20.002;2022-11-20T05:33:49;134.00;;;54.50;;
34920;SDS011;21128;50.016;20.002;2022-11-20T05:36:35;123.90;;;55.25;;
34920;SDS011;21128;50.016;20.002;2022-11-20T05:39:21;145.73;;;62.90;;
34920;SDS011;21128;50.016;20.002;2022-11-20T05:42:20;135.90;;;58.25;;
34920;SDS011;21128;50.016;20.002;2022-11-20T05:45:17;125.97;;;58.80;;
34920;SDS011;21128;50.016;20.002;2022-11-20T05:48:03;112.37;;;51.13;;
34920;SDS011;21128;50.016;20.002;2022-11-20T05:50:49;116.23;;;54.00;;
34920;SDS011;21128;50.016;20.002;2022-11-20T05:53:35;119.83;;;55.10;;
34920;SDS011;21128;50.016;20.002;2022-11-20T05:56:28;130.70;;;58.63;;
34920;SDS011;21128;50.016;20.002;2022-11-20T05:59:13;137.67;;;57.87;;
34920;SDS011;21128;50.016;20.002;2022-11-20T06:01:59;128.13;;;56.87;;
34920;SDS011;21128;50.016;20.002;2022-11-20T06:04:45;140.07;;;61.07;;
34920;SDS011;21128;50.016;20.002;2022-11-20T06:07:31;152.90;;;62.33;;
34920;SDS011;21128;50.016;20.002;2022-11-20T06:10:17;152.47;;;63.77;;
34920;SDS011;21128;50.016;20.002;2022-11-20T06:13:02;144.53;;;60.77;;
34920;SDS011;21128;50.016;20.002;2022-11-20T06:15:48;127.17;;;55.87;;
34920;SDS011;21128;50.016;20.002;2022-11-20T06:18:38;115.43;;;52.60;;
34920;SDS011;21128;50.016;20.002;2022-11-20T06:21:24;130.07;;;57.03;;
34920;SDS011;21128;50.016;20.002;2022-11-20T06:24:10;134.40;;;58.10;;
34920;SDS011;21128;50.016;20.002;2022-11-20T06:26:56;135.95;;;59.45;;
34920;SDS011;21128;50.016;20.002;2022-11-20T06:29:42;133.70;;;59.70;;
34920;SDS011;21128;50.016;20.002;2022-11-20T06:32:28;143.25;;;60.55;;
34920;SDS011;21128;50.016;20.002;2022-11-20T06:35:20;139.97;;;65.33;;
34920;SDS011;21128;50.016;20.002;2022-11-20T06:38:06;156.00;;;64.93;;
34920;SDS011;21128;50.016;20.002;2022-11-20T06:40:58;160.63;;;65.43;;
34920;SDS011;21128;50.016;20.002;2022-11-20T06:43:43;159.40;;;65.33;;
34920;SDS011;21128;50.016;20.002;2022-11-20T06:46:29;174.83;;;64.00;;
34920;SDS011;21128;50.016;20.002;2022-11-20T06:49:15;145.27;;;62.13;;
34920;SDS011;21128;50.016;20.002;2022-11-20T06:52:00;161.53;;;68.10;;
34920;SDS011;21128;50.016;20.002;2022-11-20T06:54:46;169.77;;;68.67;;
34920;SDS011;21128;50.016;20.002;2022-11-20T06:57:38;165.30;;;68.27;;
34920;SDS011;21128;50.016;20.002;2022-11-20T07:00:23;147.10;;;61.23;;
34920;SDS011;21128;50.016;20.002;2022-11-20T07:03:11;158.27;;;66.50;;
34920;SDS011;21128;50.016;20.002;2022-11-20T07:05:58;164.93;;;66.80;;
34920;SDS011;21128;50.016;20.002;2022-11-20T07:08:45;155.27;;;64.90;;
34920;SDS011;21128;50.016;20.002;2022-11-20T07:11:31;156.63;;;68.00;;
34920;SDS011;21128;50.016;20.002;2022-11-20T07:14:17;154.90;;;64.53;;
34920;SDS011;21128;50.016;20.002;2022-11-20T07:17:02;159.57;;;67.40;;
34920;SDS011;21128;50.016;20.002;2022-11-20T07:19:48;152.93;;;64.33;;
34920;SDS011;21128;50.016;20.002;2022-11-20T07:22:33;151.05;;;65.10;;
34920;SDS011;21128;50.016;20.002;2022-11-20T07:25:25;157.73;;;68.53;;
34920;SDS011;21128;50.016;20.002;2022-11-20T07:30:58;144.80;;;61.50;;
34920;SDS011;21128;50.016;20.002;2022-11-20T07:33:59;156.50;;;68.50;;
34920;SDS011;21128;50.016;20.002;2022-11-20T07:36:51;144.50;;;65.05;;
34920;SDS011;21128;50.016;20.002;2022-11-20T07:39:36;158.87;;;71.40;;
34920;SDS011;21128;50.016;20.002;2022-11-20T07:42:29;149.80;;;67.47;;
34920;SDS011;21128;50.016;20.002;2022-11-20T07:45:14;152.62;;;66.20;;
34920;SDS011;21128;50.016;20.002;2022-11-20T07:48:00;152.85;;;69.30;;
34920;SDS011;21128;50.016;20.002;2022-11-20T07:50:45;161.07;;;69.37;;
34920;SDS011;21128;50.016;20.002;2022-11-20T07:53:31;148.03;;;68.47;;
34920;SDS011;21128;50.016;20.002;2022-11-20T07:56:16;146.00;;;68.37;;
34920;SDS011;21128;50.016;20.002;2022-11-20T07:59:02;157.40;;;68.87;;
34920;SDS011;21128;50.016;20.002;2022-11-20T08:01:48;145.87;;;64.70;;
34920;SDS011;21128;50.016;20.002;2022-11-20T08:04:40;157.20;;;67.37;;
34920;SDS011;21128;50.016;20.002;2022-11-20T08:07:25;151.75;;;66.50;;
34920;SDS011;21128;50.016;20.002;2022-11-20T08:10:12;159.13;;;70.03;;
34920;SDS011;21128;50.016;20.002;2022-11-20T08:12:59;126.13;;;61.47;;
34920;SDS011;21128;50.016;20.002;2022-11-20T08:16:04;139.23;;;63.30;;
34920;SDS011;21128;50.016;20.002;2022-11-20T08:18:49;156.67;;;68.60;;
34920;SDS011;21128;50.016;20.002;2022-11-20T08:21:34;151.25;;;69.60;;
34920;SDS011;21128;50.016;20.002;2022-11-20T08:24:20;146.87;;;67.47;;
34920;SDS011;21128;50.016;20.002;2022-11-20T08:27:12;144.60;;;64.73;;
34920;SDS011;21128;50.016;20.002;2022-11-20T08:29:57;139.90;;;64.80;;
34920;SDS011;21128;50.016;20.002;2022-11-20T08:32:49;141.17;;;64.20;;
34920;SDS011;21128;50.016;20.002;2022-11-20T08:35:42;140.47;;;63.45;;
34920;SDS011;21128;50.016;20.002;2022-11-20T08:38:28;128.53;;;60.63;;
34920;SDS011;21128;50.016;20.002;2022-11-20T08:41:21;137.83;;;58.83;;
34920;SDS011;21128;50.016;20.002;2022-11-20T08:44:13;132.60;;;61.75;;
34920;SDS011;21128;50.016;20.002;2022-11-20T08:47:06;138.90;;;64.40;;
34920;SDS011;21128;50.016;20.002;2022-11-20T08:49:51;136.40;;;65.57;;
34920;SDS011;21128;50.016;20.002;2022-11-20T08:52:37;140.17;;;64.83;;
34920;SDS011;21128;50.016;20.002;2022-11-20T08:55:24;143.83;;;65.37;;
34920;SDS011;21128;50.016;20.002;2022-11-20T08:58:09;151.77;;;69.67;;
34920;SDS011;21128;50.016;20.002;2022-11-20T09:00:54;137.77;;;66.37;;
34920;SDS011;21128;50.016;20.002;2022-11-20T09:03:40;145.33;;;71.53;;
34920;SDS011;21128;50.016;20.002;2022-11-20T09:06:26;141.90;;;69.30;;
34920;SDS011;21128;50.016;20.002;2022-11-20T09:09:12;139.53;;;69.40;;
34920;SDS011;21128;50.016;20.002;2022-11-20T09:11:58;143.87;;;69.57;;
34920;SDS011;21128;50.016;20.002;2022-11-20T09:14:43;137.10;;;68.15;;
34920;SDS011;21128;50.016;20.002;2022-11-20T09:17:29;145.40;;;67.43;;
34920;SDS011;21128;50.016;20.002;2022-11-20T09:20:15;137.37;;;69.13;;
34920;SDS011;21128;50.016;20.002;2022-11-20T09:23:01;146.47;;;70.73;;
34920;SDS011;21128;50.016;20.002;2022-11-20T09:25:46;135.67;;;68.03;;
34920;SDS011;21128;50.016;20.002;2022-11-20T09:28:32;135.57;;;68.17;;
34920;SDS011;21128;50.016;20.002;2022-11-20T09:31:22;134.97;;;67.10;;
34920;SDS011;21128;50.016;20.002;2022-11-20T09:34:22;135.83;;;69.10;;
34920;SDS011;21128;50.016;20.002;2022-11-20T09:37:21;139.43;;;68.30;;
34920;SDS011;21128;50.016;20.002;2022-11-20T09:40:10;135.12;;;67.15;;
34920;SDS011;21128;50.016;20.002;2022-11-20T09:53:04;132.03;;;67.17;;
34920;SDS011;21128;50.016;20.002;2022-11-20T09:55:47;136.90;;;69.05;;
34920;SDS011;21128;50.016;20.002;2022-11-20T09:58:57;132.00;;;67.10;;
34920;SDS011;21128;50.016;20.002;2022-11-20T10:01:43;136.27;;;68.10;;
34920;SDS011;21128;50.016;20.002;2022-11-20T10:04:30;142.30;;;69.13;;
34920;SDS011;21128;50.016;20.002;2022-11-20T10:07:20;132.20;;;65.93;;
34920;SDS011;21128;50.016;20.002;2022-11-20T10:10:15;139.97;;;69.33;;
34920;SDS011;21128;50.016;20.002;2022-11-20T10:31:37;130.03;;;67.43;;
34920;SDS011;21128;50.016;20.002;2022-11-20T10:37:37;129.00;;;68.13;;
34920;SDS011;21128;50.016;20.002;2022-11-20T10:40:33;125.10;;;65.43;;
34920;SDS011;21128;50.016;20.002;2022-11-20T10:46:50;132.70;;;69.30;;
34920;SDS011;21128;50.016;20.002;2022-11-20T10:49:36;123.80;;;66.20;;
34920;SDS011;21128;50.016;20.002;2022-11-20T10:55:33;129.43;;;69.90;;
34920;SDS011;21128;50.016;20.002;2022-11-20T10:58:38;125.70;;;65.60;;
34920;SDS011;21128;50.016;20.002;2022-11-20T11:01:40;126.73;;;66.33;;
34920;SDS011;21128;50.016;20.002;2022-11-20T11:04:35;132.73;;;67.03;;
34920;SDS011;21128;50.016;20.002;2022-11-20T11:07:29;120.60;;;64.40;;
34920;SDS011;21128;50.016;20.002;2022-11-20T11:10:40;123.97;;;65.65;;
34920;SDS011;21128;50.016;20.002;2022-11-20T11:13:32;128.60;;;67.73;;
34920;SDS011;21128;50.016;20.002;2022-11-20T11:16:25;128.27;;;67.17;;
34920;SDS011;21128;50.016;20.002;2022-11-20T11:19:12;135.90;;;69.40;;
34920;SDS011;21128;50.016;20.002;2022-11-20T11:21:59;129.73;;;69.23;;
34920;SDS011;21128;50.016;20.002;2022-11-20T11:24:53;134.90;;;68.77;;
34920;SDS011;21128;50.016;20.002;2022-11-20T11:27:46;125.50;;;65.70;;
34920;SDS011;21128;50.016;20.002;2022-11-20T11:30:43;134.20;;;71.57;;
34920;SDS011;21128;50.016;20.002;2022-11-20T11:33:30;129.53;;;66.97;;
34920;SDS011;21128;50.016;20.002;2022-11-20T11:36:23;128.83;;;66.53;;
34920;SDS011;21128;50.016;20.002;2022-11-20T11:39:17;129.95;;;66.90;;
34920;SDS011;21128;50.016;20.002;2022-11-20T11:42:05;134.90;;;71.30;;
34920;SDS011;21128;50.016;20.002;2022-11-20T11:44:58;125.27;;;69.00;;
34920;SDS011;21128;50.016;20.002;2022-11-20T11:50:48;124.17;;;67.00;;
34920;SDS011;21128;50.016;20.002;2022-11-20T11:53:45;125.60;;;68.30;;
34920;SDS011;21128;50.016;20.002;2022-11-20T11:56:31;132.97;;;71.87;;
34920;SDS011;21128;50.016;20.002;2022-11-20T11:59:22;124.80;;;68.40;;
34920;SDS011;21128;50.016;20.002;2022-11-20T12:02:25;136.68;;;71.15;;
34920;SDS011;21128;50.016;20.002;2022-11-20T12:14:34;127.77;;;71.17;;
34920;SDS011;21128;50.016;20.002;2022-11-20T12:17:22;128.37;;;67.60;;
34920;SDS011;21128;50.016;20.002;2022-11-20T12:20:12;138.00;;;71.45;;
34920;SDS011;21128;50.016;20.002;2022-11-20T12:23:02;137.00;;;71.27;;
34920;SDS011;21128;50.016;20.002;2022-11-20T12:26:05;135.83;;;72.53;;
34920;SDS011;21128;50.016;20.002;2022-11-20T12:29:08;132.17;;;73.03;;
34920;SDS011;21128;50.016;20.002;2022-11-20T12:35:02;129.30;;;71.53;;
34920;SDS011;21128;50.016;20.002;2022-11-20T12:41:27;134.30;;;71.27;;
34920;SDS011;21128;50.016;20.002;2022-11-20T12:54:25;138.67;;;77.53;;
34920;SDS011;21128;50.016;20.002;2022-11-20T13:00:26;94.40;;;54.50;;
34920;SDS011;21128;50.016;20.002;2022-11-20T13:06:26;138.20;;;71.33;;
34920;SDS011;21128;50.016;20.002;2022-11-20T13:09:14;130.70;;;71.75;;
34920;SDS011;21128;50.016;20.002;2022-11-20T13:12:29;143.30;;;72.63;;
34920;SDS011;21128;50.016;20.002;2022-11-20T13:15:33;137.47;;;73.80;;
34920;SDS011;21128;50.016;20.002;2022-11-20T13:18:39;140.10;;;73.23;;
34920;SDS011;21128;50.016;20.002;2022-11-20T13:21:38;135.40;;;75.10;;
34920;SDS011;21128;50.016;20.002;2022-11-20T13:24:29;136.63;;;72.57;;
34920;SDS011;21128;50.016;20.002;2022-11-20T13:27:17;135.40;;;72.80;;
34920;SDS011;21128;50.016;20.002;2022-11-20T13:30:20;141.97;;;75.27;;
34920;SDS011;21128;50.016;20.002;2022-11-20T13:33:20;144.23;;;73.87;;
34920;SDS011;21128;50.016;20.002;2022-11-20T13:36:24;142.37;;;73.87;;
34920;SDS011;21128;50.016;20.002;2022-11-20T13:39:12;138.60;;;74.00;;
34920;SDS011;21128;50.016;20.002;2022-11-20T13:41:59;131.30;;;72.37;;
34920;SDS011;21128;50.016;20.002;2022-11-20T13:44:51;145.07;;;73.87;;
34920;SDS011;21128;50.016;20.002;2022-11-20T13:47:47;132.80;;;71.27;;
34920;SDS011;21128;50.016;20.002;2022-11-20T13:50:39;136.67;;;72.40;;
34920;SDS011;21128;50.016;20.002;2022-11-20T13:56:59;137.50;;;70.30;;
34920;SDS011;21128;50.016;20.002;2022-11-20T14:00:15;139.10;;;73.17;;
34920;SDS011;21128;50.016;20.002;2022-11-20T14:05:54;143.63;;;76.43;;
34920;SDS011;21128;50.016;20.002;2022-11-20T14:08:46;135.57;;;73.03;;
34920;SDS011;21128;50.016;20.002;2022-11-20T14:11:47;142.30;;;77.73;;
34920;SDS011;21128;50.016;20.002;2022-11-20T14:14:46;144.67;;;79.53;;
34920;SDS011;21128;50.016;20.002;2022-11-20T14:17:35;152.13;;;80.60;;
34920;SDS011;21128;50.016;20.002;2022-11-20T14:20:23;145.27;;;78.47;;
34920;SDS011;21128;50.016;20.002;2022-11-20T14:23:11;134.60;;;75.30;;
34920;SDS011;21128;50.016;20.002;2022-11-20T14:25:57;149.70;;;78.40;;
34920;SDS011;21128;50.016;20.002;2022-11-20T14:28:42;140.87;;;77.27;;
34920;SDS011;21128;50.016;20.002;2022-11-20T14:31:34;139.50;;;73.80;;
34920;SDS011;21128;50.016;20.002;2022-11-20T14:34:21;141.30;;;73.80;;
34920;SDS011;21128;50.016;20.002;2022-11-20T14:37:13;131.03;;;74.00;;
34920;SDS011;21128;50.016;20.002;2022-11-20T14:43:25;144.17;;;76.03;;
34920;SDS011;21128;50.016;20.002;2022-11-20T14:46:12;134.57;;;74.67;;
34920;SDS011;21128;50.016;20.002;2022-11-20T14:49:00;138.60;;;73.60;;
34920;SDS011;21128;50.016;20.002;2022-11-20T14:51:58;142.70;;;78.03;;
34920;SDS011;21128;50.016;20.002;2022-11-20T14:54:47;140.67;;;75.83;;
34920;SDS011;21128;50.016;20.002;2022-11-20T14:57:53;138.10;;;75.25;;
34920;SDS011;21128;50.016;20.002;2022-11-20T15:00:41;142.97;;;77.23;;
34920;SDS011;21128;50.016;20.002;2022-11-20T15:03:34;141.83;;;77.03;;
34920;SDS011;21128;50.016;20.002;2022-11-20T15:06:25;143.70;;;78.35;;
34920;SDS011;21128;50.016;20.002;2022-11-20T15:09:13;155.90;;;84.45;;
34920;SDS011;21128;50.016;20.002;2022-11-20T15:12:16;155.45;;;84.25;;
34920;SDS011;21128;50.016;20.002;2022-11-20T15:15:03;151.23;;;83.13;;
34920;SDS011;21128;50.016;20.002;2022-11-20T15:17:50;154.47;;;82.83;;
34920;SDS011;21128;50.016;20.002;2022-11-20T15:20:36;155.83;;;83.03;;
34920;SDS011;21128;50.016;20.002;2022-11-20T15:23:22;151.03;;;82.23;;
34920;SDS011;21128;50.016;20.002;2022-11-20T15:26:08;146.53;;;80.63;;
34920;SDS011;21128;50.016;20.002;2022-11-20T15:28:56;154.50;;;82.07;;
34920;SDS011;21128;50.016;20.002;2022-11-20T15:31:41;159.37;;;83.70;;
34920;SDS011;21128;50.016;20.002;2022-11-20T15:34:34;155.83;;;82.73;;
34920;SDS011;21128;50.016;20.002;2022-11-20T15:37:20;153.80;;;83.00;;
34920;SDS011;21128;50.016;20.002;2022-11-20T15:40:06;166.93;;;85.67;;
34920;SDS011;21128;50.016;20.002;2022-11-20T15:43:00;155.53;;;85.30;;
34920;SDS011;21128;50.016;20.002;2022-11-20T15:45:54;157.50;;;86.27;;
34920;SDS011;21128;50.016;20.002;2022-11-20T15:48:44;157.80;;;85.40;;
34920;SDS011;21128;50.016;20.002;2022-11-20T15:51:31;151.90;;;81.10;;
34920;SDS011;21128;50.016;20.002;2022-11-20T15:54:21;162.83;;;85.13;;
34920;SDS011;21128;50.016;20.002;2022-11-20T15:57:07;163.90;;;85.63;;
34920;SDS011;21128;50.016;20.002;2022-11-20T15:59:53;166.13;;;87.03;;
34920;SDS011;21128;50.016;20.002;2022-11-20T16:02:38;160.53;;;84.40;;
34920;SDS011;21128;50.016;20.002;2022-11-20T16:05:27;164.07;;;85.60;;
34920;SDS011;21128;50.016;20.002;2022-11-20T16:08:13;157.87;;;85.23;;
34920;SDS011;21128;50.016;20.002;2022-11-20T16:11:06;152.35;;;83.20;;
34920;SDS011;21128;50.016;20.002;2022-11-20T16:14:04;151.43;;;82.60;;
34920;SDS011;21128;50.016;20.002;2022-11-20T16:17:16;148.07;;;82.03;;
34920;SDS011;21128;50.016;20.002;2022-11-20T16:20:22;161.37;;;85.00;;
34920;SDS011;21128;50.016;20.002;2022-11-20T16:23:15;153.83;;;84.00;;
34920;SDS011;21128;50.016;20.002;2022-11-20T16:26:08;152.17;;;83.17;;
34920;SDS011;21128;50.016;20.002;2022-11-20T16:28:55;151.80;;;82.10;;
34920;SDS011;21128;50.016;20.002;2022-11-20T16:31:41;166.70;;;87.27;;
34920;SDS011;21128;50.016;20.002;2022-11-20T16:34:26;156.43;;;84.50;;
34920;SDS011;21128;50.016;20.002;2022-11-20T16:37:12;161.87;;;86.77;;
34920;SDS011;21128;50.016;20.002;2022-11-20T16:39:57;161.63;;;85.13;;
34920;SDS011;21128;50.016;20.002;2022-11-20T16:42:43;162.63;;;88.53;;
34920;SDS011;21128;50.016;20.002;2022-11-20T16:45:28;155.50;;;85.50;;
34920;SDS011;21128;50.016;20.002;2022-11-20T16:48:14;158.53;;;87.17;;
34920;SDS011;21128;50.016;20.002;2022-11-20T16:51:01;161.53;;;85.03;;
34920;SDS011;21128;50.016;20.002;2022-11-20T16:53:47;160.40;;;84.40;;
34920;SDS011;21128;50.016;20.002;2022-11-20T16:56:34;159.75;;;85.75;;
34920;SDS011;21128;50.016;20.002;2022-11-20T16:59:27;158.43;;;84.17;;
34920;SDS011;21128;50.016;20.002;2022-11-20T17:02:13;168.90;;;86.53;;
34920;SDS011;21128;50.016;20.002;2022-11-20T17:04:59;162.73;;;86.43;;
34920;SDS011;21128;50.016;20.002;2022-11-20T17:07:45;163.43;;;85.70;;
34920;SDS011;21128;50.016;20.002;2022-11-20T17:10:30;149.20;;;83.77;;
34920;SDS011;21128;50.016;20.002;2022-11-20T17:13:23;158.20;;;86.35;;
34920;SDS011;21128;50.016;20.002;2022-11-20T17:16:16;155.87;;;85.60;;
34920;SDS011;21128;50.016;20.002;2022-11-20T17:19:04;155.87;;;81.57;;
34920;SDS011;21128;50.016;20.002;2022-11-20T17:21:50;157.23;;;84.90;;
34920;SDS011;21128;50.016;20.002;2022-11-20T17:24:42;154.10;;;82.03;;
34920;SDS011;21128;50.016;20.002;2022-11-20T17:27:27;155.80;;;83.43;;
34920;SDS011;21128;50.016;20.002;2022-11-20T17:30:13;157.67;;;81.63;;
34920;SDS011;21128;50.016;20.002;2022-11-20T17:32:58;162.45;;;86.75;;
34920;SDS011;21128;50.016;20.002;2022-11-20T17:35:50;160.05;;;85.90;;
34920;SDS011;21128;50.016;20.002;2022-11-20T17:38:36;160.50;;;86.40;;
34920;SDS011;21128;50.016;20.002;2022-11-20T17:41:23;160.53;;;85.40;;
34920;SDS011;21128;50.016;20.002;2022-11-20T17:44:10;154.47;;;85.47;;